地図

経路データ

SID SEASON NUMBER BASIN SUBBASIN NAME ISO_TIME NATURE LAT LON WMO_WIND WMO_PRES WMO_AGENCY TRACK_TYPE DIST2LAND LANDFALL IFLAG USA_AGENCY USA_ATCF_ID USA_LAT USA_LON USA_RECORD USA_STATUS USA_WIND USA_PRES USA_SSHS USA_R34_NE USA_R34_SE USA_R34_SW USA_R34_NW USA_R50_NE USA_R50_SE USA_R50_SW USA_R50_NW USA_R64_NE USA_R64_SE USA_R64_SW USA_R64_NW USA_POCI USA_ROCI USA_RMW USA_EYE TOKYO_LAT TOKYO_LON TOKYO_GRADE TOKYO_WIND TOKYO_PRES TOKYO_R50_DIR TOKYO_R50_LONG TOKYO_R50_SHORT TOKYO_R30_DIR TOKYO_R30_LONG TOKYO_R30_SHORT TOKYO_LAND CMA_LAT CMA_LON CMA_CAT CMA_WIND CMA_PRES HKO_LAT HKO_LON HKO_CAT HKO_WIND HKO_PRES NEWDELHI_LAT NEWDELHI_LON NEWDELHI_GRADE NEWDELHI_WIND NEWDELHI_PRES NEWDELHI_CI NEWDELHI_DP NEWDELHI_POCI REUNION_LAT REUNION_LON REUNION_TYPE REUNION_WIND REUNION_PRES REUNION_TNUM REUNION_CI REUNION_RMW REUNION_R34_NE REUNION_R34_SE REUNION_R34_SW REUNION_R34_NW REUNION_R50_NE REUNION_R50_SE REUNION_R50_SW REUNION_R50_NW REUNION_R64_NE REUNION_R64_SE REUNION_R64_SW REUNION_R64_NW BOM_LAT BOM_LON BOM_TYPE BOM_WIND BOM_PRES BOM_TNUM BOM_CI BOM_RMW BOM_R34_NE BOM_R34_SE BOM_R34_SW BOM_R34_NW BOM_R50_NE BOM_R50_SE BOM_R50_SW BOM_R50_NW BOM_R64_NE BOM_R64_SE BOM_R64_SW BOM_R64_NW BOM_ROCI BOM_POCI BOM_EYE BOM_POS_METHOD BOM_PRES_METHOD NADI_LAT NADI_LON NADI_CAT NADI_WIND NADI_PRES WELLINGTON_LAT WELLINGTON_LON WELLINGTON_WIND WELLINGTON_PRES DS824_LAT DS824_LON DS824_STAGE DS824_WIND DS824_PRES TD9636_LAT TD9636_LON TD9636_STAGE TD9636_WIND TD9636_PRES TD9635_LAT TD9635_LON TD9635_WIND TD9635_PRES TD9635_ROCI NEUMANN_LAT NEUMANN_LON NEUMANN_CLASS NEUMANN_WIND NEUMANN_PRES MLC_LAT MLC_LON MLC_CLASS MLC_WIND MLC_PRES USA_GUST BOM_GUST BOM_GUST_PER REUNION_GUST REUNION_GUST_PER USA_SEAHGT USA_SEARAD_NE USA_SEARAD_SE USA_SEARAD_SW USA_SEARAD_NW STORM_SPEED STORM_DIR
1944230N12301 1944 49 NA NA NOT_NAMED 1944-08-16 18:00:00 TS 12.1000 -59.5000 50 hurdat_atl main 226 191 O_____________ hurdat_atl AL041944 12.1000 -59.5000 TS 50 0 10 268
1944230N12301 1944 49 NA CS NOT_NAMED 1944-08-16 21:00:00 TS 12.0852 -60.0000 main 191 166 P_____________ AL041944 12.0852 -60.0000 TS 55 0 10 270
1944230N12301 1944 49 NA CS NOT_NAMED 1944-08-17 00:00:00 TS 12.1000 -60.5000 60 hurdat_atl main 166 157 O_____________ hurdat_atl AL041944 12.1000 -60.5000 TS 60 0 10 275
1944230N12301 1944 49 NA CS NOT_NAMED 1944-08-17 03:00:00 TS 12.1699 -61.0000 main 167 167 P_____________ AL041944 12.1699 -61.0000 TS 62 0 10 282
1944230N12301 1944 49 NA CS NOT_NAMED 1944-08-17 06:00:00 TS 12.3000 -61.5000 65 hurdat_atl main 179 179 O_____________ hurdat_atl AL041944 12.3000 -61.5000 HU 65 1 10 287
1944230N12301 1944 49 NA CS NOT_NAMED 1944-08-17 09:00:00 TS 12.4699 -62.0001 main 202 201 P_____________ AL041944 12.4699 -62.0001 HU 67 1 11 292
1944230N12301 1944 49 NA CS NOT_NAMED 1944-08-17 12:00:00 TS 12.7000 -62.5000 70 hurdat_atl main 223 223 O_____________ hurdat_atl AL041944 12.7000 -62.5000 HU 70 1 11 297
1944230N12301 1944 49 NA CS NOT_NAMED 1944-08-17 15:00:00 TS 12.9774 -63.0001 main 257 257 P_____________ AL041944 12.9774 -63.0001 HU 72 1 11 302
1944230N12301 1944 49 NA CS NOT_NAMED 1944-08-17 18:00:00 TS 13.3000 -63.5000 75 hurdat_atl main 294 294 O_____________ hurdat_atl AL041944 13.3000 -63.5000 HU 75 1 12 304
1944230N12301 1944 49 NA CS NOT_NAMED 1944-08-17 21:00:00 TS 13.6424 -64.0001 main 336 336 P_____________ AL041944 13.6424 -64.0001 HU 77 1 12 306
1944230N12301 1944 49 NA CS NOT_NAMED 1944-08-18 00:00:00 TS 14.0000 -64.5000 80 hurdat_atl main 382 382 O_____________ hurdat_atl AL041944 14.0000 -64.5000 HU 80 1 12 307
1944230N12301 1944 49 NA CS NOT_NAMED 1944-08-18 03:00:00 TS 14.3648 -64.9926 main 411 365 P_____________ AL041944 14.3648 -64.9926 HU 82 1 12 306
1944230N12301 1944 49 NA CS NOT_NAMED 1944-08-18 06:00:00 TS 14.7000 -65.5000 85 hurdat_atl main 365 325 O_____________ hurdat_atl AL041944 14.7000 -65.5000 HU 85 2 12 301
1944230N12301 1944 49 NA CS NOT_NAMED 1944-08-18 09:00:00 TS 14.9799 -66.0351 main 325 303 P_____________ AL041944 14.9799 -66.0351 HU 87 2 12 295
1944230N12301 1944 49 NA CS NOT_NAMED 1944-08-18 12:00:00 TS 15.2000 -66.6000 90 973 hurdat_atl main 303 279 O_____________ hurdat_atl AL041944 15.2000 -66.6000 HU 90 973 2 12 289
1944230N12301 1944 49 NA CS NOT_NAMED 1944-08-18 15:00:00 TS 15.3724 -67.1926 main 279 271 P_____________ AL041944 15.3724 -67.1926 HU 90 2 12 285
1944230N12301 1944 49 NA CS NOT_NAMED 1944-08-18 18:00:00 TS 15.5000 -67.8000 90 hurdat_atl main 276 274 O_____________ hurdat_atl AL041944 15.5000 -67.8000 HU 90 2 12 282
1944230N12301 1944 49 NA CS NOT_NAMED 1944-08-18 21:00:00 TS 15.6149 -68.4075 main 287 279 P_____________ AL041944 15.6149 -68.4075 HU 90 2 12 280
1944230N12301 1944 49 NA CS NOT_NAMED 1944-08-19 00:00:00 TS 15.7000 -69.0000 90 hurdat_atl main 280 278 O_____________ hurdat_atl AL041944 15.7000 -69.0000 HU 90 2 11 277
1944230N12301 1944 49 NA CS NOT_NAMED 1944-08-19 03:00:00 TS 15.7573 -69.5576 main 276 244 P_____________ AL041944 15.7573 -69.5576 HU 92 2 11 275
1944230N12301 1944 49 NA CS NOT_NAMED 1944-08-19 06:00:00 TS 15.8000 -70.1000 95 hurdat_atl main 244 218 O_____________ hurdat_atl AL041944 15.8000 -70.1000 HU 95 2 11 274
1944230N12301 1944 49 NA CS NOT_NAMED 1944-08-19 09:00:00 TS 15.8349 -70.6576 main 214 191 P_____________ AL041944 15.8349 -70.6576 HU 97 3 11 275
1944230N12301 1944 49 NA CS NOT_NAMED 1944-08-19 12:00:00 TS 15.9000 -71.2000 100 hurdat_atl main 191 179 O_____________ hurdat_atl AL041944 15.9000 -71.2000 HU 100 3 10 280
1944230N12301 1944 49 NA CS NOT_NAMED 1944-08-19 15:00:00 TS 16.0198 -71.7076 main 181 173 P_____________ AL041944 16.0198 -71.7076 HU 102 3 10 287
1944230N12301 1944 49 NA CS NOT_NAMED 1944-08-19 18:00:00 TS 16.2000 -72.2000 105 hurdat_atl main 178 174 O_____________ hurdat_atl AL041944 16.2000 -72.2000 HU 105 3 10 293
1944230N12301 1944 49 NA CS NOT_NAMED 1944-08-19 21:00:00 TS 16.4199 -72.7001 main 190 158 P_____________ AL041944 16.4199 -72.7001 HU 105 3 11 298
1944230N12301 1944 49 NA CS NOT_NAMED 1944-08-20 00:00:00 TS 16.7000 -73.2000 105 hurdat_atl main 158 112 O_____________ hurdat_atl AL041944 16.7000 -73.2000 HU 105 3 11 304
1944230N12301 1944 49 NA CS NOT_NAMED 1944-08-20 03:00:00 TS 17.0498 -73.6925 main 112 70 P_____________ AL041944 17.0498 -73.6925 HU 105 3 12 306
1944230N12301 1944 49 NA CS NOT_NAMED 1944-08-20 06:00:00 TS 17.4000 -74.2000 105 hurdat_atl main 74 70 O_____________ hurdat_atl AL041944 17.4000 -74.2000 HU 105 3 12 302
1944230N12301 1944 49 NA CS NOT_NAMED 1944-08-20 09:00:00 TS 17.6723 -74.7277 main 74 74 P_____________ AL041944 17.6723 -74.7277 HU 105 3 12 295
1944230N12301 1944 49 NA CS NOT_NAMED 1944-08-20 12:00:00 TS 17.9000 -75.3000 105 hurdat_atl main 95 38 O_____________ hurdat_atl AL041944 17.9000 -75.3000 HU 105 3 12 291
1944230N12301 1944 49 NA CS NOT_NAMED 1944-08-20 15:00:00 TS 18.1147 -75.9127 main 38 0 P_____________ AL041944 18.1147 -75.9127 HU 97 3 13 288
1944230N12301 1944 49 NA CS NOT_NAMED 1944-08-20 18:00:00 TS 18.3000 -76.6000 90 hurdat_atl main 11 0 O_____________ hurdat_atl AL041944 18.3000 -76.6000 HU 90 2 14 284
1944230N12301 1944 49 NA CS NOT_NAMED 1944-08-20 21:00:00 TS 18.4650 -77.3851 main 11 11 P_____________ AL041944 18.4650 -77.3851 HU 82 1 15 281
1944230N12301 1944 49 NA CS NOT_NAMED 1944-08-21 00:00:00 TS 18.6000 -78.2000 75 hurdat_atl main 22 22 O_____________ hurdat_atl AL041944 18.6000 -78.2000 HU 75 1 15 279
1944230N12301 1944 49 NA CS NOT_NAMED 1944-08-21 03:00:00 TS 18.7072 -78.9652 main 81 81 P_____________ AL041944 18.7072 -78.9652 HU 75 1 14 278
1944230N12301 1944 49 NA CS NOT_NAMED 1944-08-21 06:00:00 TS 18.8000 -79.7000 75 hurdat_atl main 152 152 O_____________ hurdat_atl AL041944 18.8000 -79.7000 HU 75 1 14 278
1944230N12301 1944 49 NA CS NOT_NAMED 1944-08-21 09:00:00 TS 18.8995 -80.3926 main 224 224 P_____________ AL041944 18.8995 -80.3926 HU 75 1 13 279
1944230N12301 1944 49 NA CS NOT_NAMED 1944-08-21 12:00:00 TS 19.0000 -81.1000 75 hurdat_atl main 298 277 O_____________ hurdat_atl AL041944 19.0000 -81.1000 HU 75 1 14 278
1944230N12301 1944 49 NA CS NOT_NAMED 1944-08-21 15:00:00 TS 19.0998 -81.8851 main 273 246 P_____________ AL041944 19.0998 -81.8851 HU 75 1 15 278
1944230N12301 1944 49 NA CS NOT_NAMED 1944-08-21 18:00:00 TS 19.2000 -82.7000 75 hurdat_atl main 246 236 O_____________ hurdat_atl AL041944 19.2000 -82.7000 HU 75 1 15 277
1944230N12301 1944 49 NA CS NOT_NAMED 1944-08-21 21:00:00 TS 19.2921 -83.4927 main 245 245 P_____________ AL041944 19.2921 -83.4927 HU 77 1 15 278
1944230N12301 1944 49 NA CS NOT_NAMED 1944-08-22 00:00:00 TS 19.4000 -84.3000 80 hurdat_atl main 269 237 O_____________ hurdat_atl AL041944 19.4000 -84.3000 HU 80 1 16 279
1944230N12301 1944 49 NA CS NOT_NAMED 1944-08-22 03:00:00 TS 19.5422 -85.1425 main 237 148 P_____________ AL041944 19.5422 -85.1425 HU 80 1 16 281
1944230N12301 1944 49 NA CS NOT_NAMED 1944-08-22 06:00:00 TS 19.7000 -86.0000 80 hurdat_atl main 148 71 O_____________ hurdat_atl AL041944 19.7000 -86.0000 HU 80 1 16 281
1944230N12301 1944 49 NA CS NOT_NAMED 1944-08-22 09:00:00 TS 19.8572 -86.8575 main 62 0 P_____________ AL041944 19.8572 -86.8575 HU 80 1 16 281
1944230N12301 1944 49 NA NA NOT_NAMED 1944-08-22 12:00:00 TS 20.0000 -87.7000 80 hurdat_atl main 0 0 O_____________ hurdat_atl AL041944 20.0000 -87.7000 HU 80 1 16 279
1944230N12301 1944 49 NA NA NOT_NAMED 1944-08-22 15:00:00 TS 20.1072 -88.5227 main 0 0 P_____________ AL041944 20.1072 -88.5227 HU 72 1 15 278
1944230N12301 1944 49 NA NA NOT_NAMED 1944-08-22 18:00:00 TS 20.2000 -89.3000 65 hurdat_atl main 0 0 O_____________ hurdat_atl AL041944 20.2000 -89.3000 HU 65 1 14 278
1944230N12301 1944 49 NA NA NOT_NAMED 1944-08-22 21:00:00 TS 20.2996 -90.0226 main 0 0 P_____________ AL041944 20.2996 -90.0226 HU 60 0 13 279
1944230N12301 1944 49 NA GM NOT_NAMED 1944-08-23 00:00:00 TS 20.4000 -90.7000 55 hurdat_atl main 20 20 O_____________ hurdat_atl AL041944 20.4000 -90.7000 TS 55 0 13 279
1944230N12301 1944 49 NA GM NOT_NAMED 1944-08-23 03:00:00 TS 20.5072 -91.3575 main 93 93 P_____________ AL041944 20.5072 -91.3575 TS 52 0 12 279
1944230N12301 1944 49 NA GM NOT_NAMED 1944-08-23 06:00:00 TS 20.6000 -92.0000 50 hurdat_atl main 156 156 O_____________ hurdat_atl AL041944 20.6000 -92.0000 TS 50 0 12 277
1944230N12301 1944 49 NA GM NOT_NAMED 1944-08-23 09:00:00 TS 20.6573 -92.6501 main 230 230 P_____________ AL041944 20.6573 -92.6501 TS 47 0 12 275
1944230N12301 1944 49 NA GM NOT_NAMED 1944-08-23 12:00:00 TS 20.7000 -93.3000 45 hurdat_atl main 243 243 O_____________ hurdat_atl AL041944 20.7000 -93.3000 TS 45 0 12 275
1944230N12301 1944 49 NA GM NOT_NAMED 1944-08-23 15:00:00 TS 20.7648 -93.9574 main 266 212 P_____________ AL041944 20.7648 -93.9574 TS 45 0 12 275
1944230N12301 1944 49 NA GM NOT_NAMED 1944-08-23 18:00:00 TS 20.8000 -94.6000 45 hurdat_atl main 212 160 O_____________ hurdat_atl AL041944 20.8000 -94.6000 TS 45 0 12 270
1944230N12301 1944 49 NA GM NOT_NAMED 1944-08-23 21:00:00 TS 20.7647 -95.2076 main 160 107 P_____________ AL041944 20.7647 -95.2076 TS 42 0 11 265
1944230N12301 1944 49 NA GM NOT_NAMED 1944-08-24 00:00:00 TS 20.7000 -95.8000 40 hurdat_atl main 107 61 O_____________ hurdat_atl AL041944 20.7000 -95.8000 TS 40 0 11 264
1944230N12301 1944 49 NA GM NOT_NAMED 1944-08-24 03:00:00 TS 20.6498 -96.4000 main 53 10 P_____________ AL041944 20.6498 -96.4000 TS 37 0 11 265
1944230N12301 1944 49 NA GM NOT_NAMED 1944-08-24 06:00:00 TS 20.6000 -97.0000 35 hurdat_atl main 10 0 O_____________ hurdat_atl AL041944 20.6000 -97.0000 TS 35 0 11 265
1944230N12301 1944 49 NA NA NOT_NAMED 1944-08-24 09:00:00 TS 20.5504 -97.6001 main 0 0 P_____________ AL041944 20.5504 -97.6001 TS 30 -1 11 265
1944230N12301 1944 49 NA NA NOT_NAMED 1944-08-24 12:00:00 TS 20.5000 -98.2000 25 hurdat_atl main 0 O_____________ hurdat_atl AL041944 20.5000 -98.2000 TD 25 -1 11 265

IBTrACS Databaseについて

本データベースは、米国NOAAが公開する1842年以降の世界の熱帯低気圧のベストトラックデータアーカイブInternational Best Track Archive for Climate Stewardship (IBTrACS)を、ウェブで閲覧しやすい形式に変換したものです。

最終更新日:2021-11-26